sensor_id;sensor_type;location;lat;lon;timestamp;P1;durP1;ratioP1;P2;durP2;ratioP2
66327;SDS011;53133;52.862;6.602;2022-09-16T00:00:22;2.33;;;0.90;;
66327;SDS011;53133;52.862;6.602;2022-09-16T00:02:50;3.90;;;1.00;;
66327;SDS011;53133;52.862;6.602;2022-09-16T00:05:16;3.25;;;0.82;;
66327;SDS011;53133;52.862;6.602;2022-09-16T00:07:41;4.25;;;1.13;;
66327;SDS011;53133;52.862;6.602;2022-09-16T00:10:07;5.70;;;1.02;;
66327;SDS011;53133;52.862;6.602;2022-09-16T00:12:33;3.85;;;0.95;;
66327;SDS011;53133;52.862;6.602;2022-09-16T00:14:59;4.80;;;1.27;;
66327;SDS011;53133;52.862;6.602;2022-09-16T00:17:24;4.07;;;1.05;;
66327;SDS011;53133;52.862;6.602;2022-09-16T00:19:50;4.10;;;0.90;;
66327;SDS011;53133;52.862;6.602;2022-09-16T00:22:16;4.50;;;1.15;;
66327;SDS011;53133;52.862;6.602;2022-09-16T00:24:42;3.95;;;1.20;;
66327;SDS011;53133;52.862;6.602;2022-09-16T00:27:09;6.13;;;1.00;;
66327;SDS011;53133;52.862;6.602;2022-09-16T00:29:34;4.18;;;1.05;;
66327;SDS011;53133;52.862;6.602;2022-09-16T00:32:00;3.22;;;1.00;;
66327;SDS011;53133;52.862;6.602;2022-09-16T00:34:26;4.97;;;1.20;;
66327;SDS011;53133;52.862;6.602;2022-09-16T00:36:51;4.25;;;1.23;;
66327;SDS011;53133;52.862;6.602;2022-09-16T00:39:17;6.03;;;1.05;;
66327;SDS011;53133;52.862;6.602;2022-09-16T00:41:42;5.38;;;1.20;;
66327;SDS011;53133;52.862;6.602;2022-09-16T00:47:12;4.13;;;1.20;;
66327;SDS011;53133;52.862;6.602;2022-09-16T00:49:40;3.17;;;0.80;;
66327;SDS011;53133;52.862;6.602;2022-09-16T00:52:07;4.80;;;1.25;;
66327;SDS011;53133;52.862;6.602;2022-09-16T00:54:34;3.22;;;0.93;;
66327;SDS011;53133;52.862;6.602;2022-09-16T00:57:01;4.85;;;1.02;;
66327;SDS011;53133;52.862;6.602;2022-09-16T00:59:29;3.60;;;0.88;;
66327;SDS011;53133;52.862;6.602;2022-09-16T01:01:57;5.00;;;1.00;;
66327;SDS011;53133;52.862;6.602;2022-09-16T01:04:28;5.43;;;1.00;;
66327;SDS011;53133;52.862;6.602;2022-09-16T01:06:56;5.82;;;1.20;;
66327;SDS011;53133;52.862;6.602;2022-09-16T01:09:23;2.00;;;1.00;;
66327;SDS011;53133;52.862;6.602;2022-09-16T01:11:50;2.90;;;1.25;;
66327;SDS011;53133;52.862;6.602;2022-09-16T01:14:16;5.68;;;1.30;;
66327;SDS011;53133;52.862;6.602;2022-09-16T01:26:13;5.57;;;1.23;;
66327;SDS011;53133;52.862;6.602;2022-09-16T01:37:36;3.30;;;1.17;;
66327;SDS011;53133;52.862;6.602;2022-09-16T01:40:08;3.55;;;1.30;;
66327;SDS011;53133;52.862;6.602;2022-09-16T01:43:30;3.33;;;1.20;;
66327;SDS011;53133;52.862;6.602;2022-09-16T01:53:19;5.70;;;1.23;;
66327;SDS011;53133;52.862;6.602;2022-09-16T01:56:05;4.35;;;1.15;;
66327;SDS011;53133;52.862;6.602;2022-09-16T02:01:29;5.80;;;1.48;;
66327;SDS011;53133;52.862;6.602;2022-09-16T02:04:02;2.85;;;1.00;;
66327;SDS011;53133;52.862;6.602;2022-09-16T02:06:33;4.28;;;1.27;;
66327;SDS011;53133;52.862;6.602;2022-09-16T02:09:04;4.60;;;1.15;;
66327;SDS011;53133;52.862;6.602;2022-09-16T02:11:34;4.70;;;1.23;;
66327;SDS011;53133;52.862;6.602;2022-09-16T02:14:09;5.20;;;1.00;;
66327;SDS011;53133;52.862;6.602;2022-09-16T02:16:58;5.10;;;1.23;;
66327;SDS011;53133;52.862;6.602;2022-09-16T02:19:36;5.35;;;1.10;;
66327;SDS011;53133;52.862;6.602;2022-09-16T02:22:07;3.58;;;0.90;;
66327;SDS011;53133;52.862;6.602;2022-09-16T02:24:36;3.00;;;0.80;;
66327;SDS011;53133;52.862;6.602;2022-09-16T02:27:05;4.85;;;1.20;;
66327;SDS011;53133;52.862;6.602;2022-09-16T02:29:43;4.10;;;1.38;;
66327;SDS011;53133;52.862;6.602;2022-09-16T02:32:15;3.75;;;1.10;;
66327;SDS011;53133;52.862;6.602;2022-09-16T02:34:44;3.03;;;1.13;;
66327;SDS011;53133;52.862;6.602;2022-09-16T02:37:32;4.97;;;0.98;;
66327;SDS011;53133;52.862;6.602;2022-09-16T02:40:06;6.55;;;1.25;;
66327;SDS011;53133;52.862;6.602;2022-09-16T02:45:02;4.78;;;1.33;;
66327;SDS011;53133;52.862;6.602;2022-09-16T02:50:14;5.88;;;0.88;;
66327;SDS011;53133;52.862;6.602;2022-09-16T02:58:22;3.97;;;0.80;;
66327;SDS011;53133;52.862;6.602;2022-09-16T03:00:48;4.82;;;0.90;;
66327;SDS011;53133;52.862;6.602;2022-09-16T03:03:16;3.33;;;1.10;;
66327;SDS011;53133;52.862;6.602;2022-09-16T03:05:59;4.03;;;1.10;;
66327;SDS011;53133;52.862;6.602;2022-09-16T03:08:36;4.95;;;0.93;;
66327;SDS011;53133;52.862;6.602;2022-09-16T03:16:30;7.35;;;1.20;;
66327;SDS011;53133;52.862;6.602;2022-09-16T03:19:48;5.00;;;1.15;;
66327;SDS011;53133;52.862;6.602;2022-09-16T03:22:12;4.10;;;1.00;;
66327;SDS011;53133;52.862;6.602;2022-09-16T03:25:09;4.93;;;1.10;;
66327;SDS011;53133;52.862;6.602;2022-09-16T03:30:18;5.15;;;1.00;;
66327;SDS011;53133;52.862;6.602;2022-09-16T03:38:08;2.67;;;0.88;;
66327;SDS011;53133;52.862;6.602;2022-09-16T03:40:36;4.80;;;0.82;;
66327;SDS011;53133;52.862;6.602;2022-09-16T03:43:08;4.53;;;1.30;;
66327;SDS011;53133;52.862;6.602;2022-09-16T03:45:35;2.95;;;1.00;;
66327;SDS011;53133;52.862;6.602;2022-09-16T03:48:01;3.30;;;1.00;;
66327;SDS011;53133;52.862;6.602;2022-09-16T03:50:27;5.60;;;1.23;;
66327;SDS011;53133;52.862;6.602;2022-09-16T03:52:52;3.80;;;1.23;;
66327;SDS011;53133;52.862;6.602;2022-09-16T03:55:18;6.00;;;1.20;;
66327;SDS011;53133;52.862;6.602;2022-09-16T03:57:43;6.55;;;1.33;;
66327;SDS011;53133;52.862;6.602;2022-09-16T04:00:09;4.80;;;1.20;;
66327;SDS011;53133;52.862;6.602;2022-09-16T04:02:35;4.25;;;1.10;;
66327;SDS011;53133;52.862;6.602;2022-09-16T04:05:01;4.38;;;1.35;;
66327;SDS011;53133;52.862;6.602;2022-09-16T04:07:26;4.05;;;1.17;;
66327;SDS011;53133;52.862;6.602;2022-09-16T04:09:52;6.55;;;1.02;;
66327;SDS011;53133;52.862;6.602;2022-09-16T04:12:17;3.85;;;1.00;;
66327;SDS011;53133;52.862;6.602;2022-09-16T04:14:43;5.57;;;1.10;;
66327;SDS011;53133;52.862;6.602;2022-09-16T04:17:09;4.70;;;1.20;;
66327;SDS011;53133;52.862;6.602;2022-09-16T04:19:34;5.05;;;1.27;;
66327;SDS011;53133;52.862;6.602;2022-09-16T04:22:00;5.50;;;1.02;;
66327;SDS011;53133;52.862;6.602;2022-09-16T04:24:25;4.28;;;1.00;;
66327;SDS011;53133;52.862;6.602;2022-09-16T04:26:51;3.65;;;1.10;;
66327;SDS011;53133;52.862;6.602;2022-09-16T04:29:17;6.05;;;1.00;;
66327;SDS011;53133;52.862;6.602;2022-09-16T04:31:42;8.07;;;1.52;;
66327;SDS011;53133;52.862;6.602;2022-09-16T04:34:08;5.18;;;1.00;;
66327;SDS011;53133;52.862;6.602;2022-09-16T04:36:37;3.78;;;1.02;;
66327;SDS011;53133;52.862;6.602;2022-09-16T04:39:03;6.45;;;1.20;;
66327;SDS011;53133;52.862;6.602;2022-09-16T04:41:29;5.93;;;0.90;;
66327;SDS011;53133;52.862;6.602;2022-09-16T04:43:57;3.63;;;0.90;;
66327;SDS011;53133;52.862;6.602;2022-09-16T04:46:24;3.28;;;1.00;;
66327;SDS011;53133;52.862;6.602;2022-09-16T04:48:51;3.75;;;1.02;;
66327;SDS011;53133;52.862;6.602;2022-09-16T04:51:18;5.03;;;1.13;;
66327;SDS011;53133;52.862;6.602;2022-09-16T04:53:44;5.43;;;1.13;;
66327;SDS011;53133;52.862;6.602;2022-09-16T04:56:12;3.47;;;0.98;;
66327;SDS011;53133;52.862;6.602;2022-09-16T04:58:40;5.70;;;1.00;;
66327;SDS011;53133;52.862;6.602;2022-09-16T05:01:11;5.65;;;1.20;;
66327;SDS011;53133;52.862;6.602;2022-09-16T05:03:42;2.92;;;1.10;;
66327;SDS011;53133;52.862;6.602;2022-09-16T05:06:16;5.70;;;1.05;;
66327;SDS011;53133;52.862;6.602;2022-09-16T05:08:47;5.07;;;1.00;;
66327;SDS011;53133;52.862;6.602;2022-09-16T05:11:14;4.55;;;0.73;;
66327;SDS011;53133;52.862;6.602;2022-09-16T05:13:42;5.38;;;0.90;;
66327;SDS011;53133;52.862;6.602;2022-09-16T05:16:08;5.28;;;1.40;;
66327;SDS011;53133;52.862;6.602;2022-09-16T05:18:45;8.88;;;1.10;;
66327;SDS011;53133;52.862;6.602;2022-09-16T05:21:13;8.27;;;1.30;;
66327;SDS011;53133;52.862;6.602;2022-09-16T05:23:41;5.25;;;0.98;;
66327;SDS011;53133;52.862;6.602;2022-09-16T05:26:08;5.82;;;1.13;;
66327;SDS011;53133;52.862;6.602;2022-09-16T05:28:36;4.53;;;1.00;;
66327;SDS011;53133;52.862;6.602;2022-09-16T05:31:06;3.70;;;1.00;;
66327;SDS011;53133;52.862;6.602;2022-09-16T05:33:33;5.65;;;1.13;;
66327;SDS011;53133;52.862;6.602;2022-09-16T05:36:05;11.48;;;1.48;;
66327;SDS011;53133;52.862;6.602;2022-09-16T05:38:32;4.53;;;1.20;;
66327;SDS011;53133;52.862;6.602;2022-09-16T05:40:58;10.88;;;1.33;;
66327;SDS011;53133;52.862;6.602;2022-09-16T05:43:25;5.93;;;1.17;;
66327;SDS011;53133;52.862;6.602;2022-09-16T05:45:51;6.65;;;1.20;;
66327;SDS011;53133;52.862;6.602;2022-09-16T05:48:17;4.30;;;1.20;;
66327;SDS011;53133;52.862;6.602;2022-09-16T05:50:56;4.05;;;1.38;;
66327;SDS011;53133;52.862;6.602;2022-09-16T05:53:26;4.13;;;1.20;;
66327;SDS011;53133;52.862;6.602;2022-09-16T05:58:23;3.45;;;1.10;;
66327;SDS011;53133;52.862;6.602;2022-09-16T06:00:49;6.32;;;1.33;;
66327;SDS011;53133;52.862;6.602;2022-09-16T06:03:15;4.63;;;0.88;;
66327;SDS011;53133;52.862;6.602;2022-09-16T06:05:41;5.88;;;1.20;;
66327;SDS011;53133;52.862;6.602;2022-09-16T06:08:06;5.15;;;1.30;;
66327;SDS011;53133;52.862;6.602;2022-09-16T06:10:36;6.97;;;1.45;;
66327;SDS011;53133;52.862;6.602;2022-09-16T06:13:02;5.65;;;1.30;;
66327;SDS011;53133;52.862;6.602;2022-09-16T06:15:28;7.05;;;1.48;;
66327;SDS011;53133;52.862;6.602;2022-09-16T06:17:53;12.27;;;1.50;;
66327;SDS011;53133;52.862;6.602;2022-09-16T06:20:19;11.25;;;1.83;;
66327;SDS011;53133;52.862;6.602;2022-09-16T06:22:45;10.70;;;1.70;;
66327;SDS011;53133;52.862;6.602;2022-09-16T06:25:10;11.50;;;2.03;;
66327;SDS011;53133;52.862;6.602;2022-09-16T06:27:36;8.18;;;1.30;;
66327;SDS011;53133;52.862;6.602;2022-09-16T06:30:02;8.70;;;1.23;;
66327;SDS011;53133;52.862;6.602;2022-09-16T06:32:31;4.82;;;1.13;;
66327;SDS011;53133;52.862;6.602;2022-09-16T06:34:57;8.63;;;1.48;;
66327;SDS011;53133;52.862;6.602;2022-09-16T06:37:22;8.57;;;1.35;;
66327;SDS011;53133;52.862;6.602;2022-09-16T06:39:48;5.60;;;1.13;;
66327;SDS011;53133;52.862;6.602;2022-09-16T06:42:14;6.45;;;1.33;;
66327;SDS011;53133;52.862;6.602;2022-09-16T06:44:39;10.98;;;1.67;;
66327;SDS011;53133;52.862;6.602;2022-09-16T06:47:05;6.82;;;1.70;;
66327;SDS011;53133;52.862;6.602;2022-09-16T06:49:31;7.03;;;1.58;;
66327;SDS011;53133;52.862;6.602;2022-09-16T06:51:56;9.00;;;1.42;;
66327;SDS011;53133;52.862;6.602;2022-09-16T06:54:22;8.15;;;1.58;;
66327;SDS011;53133;52.862;6.602;2022-09-16T06:56:47;12.20;;;1.50;;
66327;SDS011;53133;52.862;6.602;2022-09-16T06:59:13;8.57;;;1.63;;
66327;SDS011;53133;52.862;6.602;2022-09-16T07:01:39;10.60;;;1.80;;
66327;SDS011;53133;52.862;6.602;2022-09-16T07:04:06;7.43;;;1.52;;
66327;SDS011;53133;52.862;6.602;2022-09-16T07:06:37;12.48;;;1.80;;
66327;SDS011;53133;52.862;6.602;2022-09-16T07:09:03;8.35;;;1.70;;
66327;SDS011;53133;52.862;6.602;2022-09-16T07:11:29;9.25;;;1.33;;
66327;SDS011;53133;52.862;6.602;2022-09-16T07:13:55;7.15;;;1.52;;
66327;SDS011;53133;52.862;6.602;2022-09-16T07:16:23;9.27;;;1.83;;
66327;SDS011;53133;52.862;6.602;2022-09-16T07:18:56;8.82;;;1.40;;
66327;SDS011;53133;52.862;6.602;2022-09-16T07:21:24;9.25;;;1.73;;
66327;SDS011;53133;52.862;6.602;2022-09-16T07:23:54;10.40;;;1.65;;
66327;SDS011;53133;52.862;6.602;2022-09-16T07:26:23;7.32;;;1.70;;
66327;SDS011;53133;52.862;6.602;2022-09-16T07:28:52;12.90;;;1.85;;
66327;SDS011;53133;52.862;6.602;2022-09-16T07:31:21;9.25;;;1.65;;
66327;SDS011;53133;52.862;6.602;2022-09-16T07:33:52;6.72;;;1.60;;
66327;SDS011;53133;52.862;6.602;2022-09-16T07:36:20;10.52;;;2.13;;
66327;SDS011;53133;52.862;6.602;2022-09-16T07:38:48;11.23;;;1.80;;
66327;SDS011;53133;52.862;6.602;2022-09-16T07:41:16;15.35;;;2.13;;
66327;SDS011;53133;52.862;6.602;2022-09-16T07:43:47;8.63;;;1.70;;
66327;SDS011;53133;52.862;6.602;2022-09-16T07:46:13;7.25;;;1.73;;
66327;SDS011;53133;52.862;6.602;2022-09-16T07:48:44;11.70;;;2.20;;
66327;SDS011;53133;52.862;6.602;2022-09-16T07:51:12;10.02;;;1.73;;
66327;SDS011;53133;52.862;6.602;2022-09-16T07:53:39;10.65;;;1.73;;
66327;SDS011;53133;52.862;6.602;2022-09-16T07:56:06;16.80;;;2.10;;
66327;SDS011;53133;52.862;6.602;2022-09-16T07:58:37;10.82;;;1.60;;
66327;SDS011;53133;52.862;6.602;2022-09-16T08:01:04;8.82;;;1.67;;
66327;SDS011;53133;52.862;6.602;2022-09-16T08:03:32;13.10;;;1.73;;
66327;SDS011;53133;52.862;6.602;2022-09-16T08:06:02;7.80;;;1.70;;
66327;SDS011;53133;52.862;6.602;2022-09-16T08:08:30;7.78;;;1.40;;
66327;SDS011;53133;52.862;6.602;2022-09-16T08:10:56;10.90;;;1.80;;
66327;SDS011;53133;52.862;6.602;2022-09-16T08:13:23;7.80;;;1.42;;
66327;SDS011;53133;52.862;6.602;2022-09-16T08:15:49;13.65;;;1.77;;
66327;SDS011;53133;52.862;6.602;2022-09-16T08:18:15;7.20;;;1.50;;
66327;SDS011;53133;52.862;6.602;2022-09-16T08:20:40;8.50;;;1.52;;
66327;SDS011;53133;52.862;6.602;2022-09-16T08:23:06;11.05;;;1.70;;
66327;SDS011;53133;52.862;6.602;2022-09-16T08:25:32;9.70;;;1.95;;
66327;SDS011;53133;52.862;6.602;2022-09-16T08:27:57;8.05;;;1.65;;
66327;SDS011;53133;52.862;6.602;2022-09-16T08:30:23;12.15;;;2.00;;
66327;SDS011;53133;52.862;6.602;2022-09-16T08:32:54;12.90;;;1.92;;
66327;SDS011;53133;52.862;6.602;2022-09-16T08:35:26;12.32;;;1.88;;
66327;SDS011;53133;52.862;6.602;2022-09-16T08:37:51;12.00;;;2.40;;
66327;SDS011;53133;52.862;6.602;2022-09-16T08:40:18;8.55;;;1.80;;
66327;SDS011;53133;52.862;6.602;2022-09-16T08:48:31;13.35;;;1.85;;
66327;SDS011;53133;52.862;6.602;2022-09-16T08:51:04;10.75;;;2.00;;
66327;SDS011;53133;52.862;6.602;2022-09-16T08:53:40;9.75;;;1.73;;
66327;SDS011;53133;52.862;6.602;2022-09-16T08:56:10;8.80;;;1.95;;
66327;SDS011;53133;52.862;6.602;2022-09-16T08:58:43;9.70;;;2.00;;
66327;SDS011;53133;52.862;6.602;2022-09-16T09:03:55;9.50;;;1.88;;
66327;SDS011;53133;52.862;6.602;2022-09-16T09:12:04;12.83;;;1.97;;
66327;SDS011;53133;52.862;6.602;2022-09-16T09:14:59;10.40;;;1.88;;
66327;SDS011;53133;52.862;6.602;2022-09-16T09:20:40;10.45;;;1.95;;
66327;SDS011;53133;52.862;6.602;2022-09-16T09:28:45;7.97;;;2.03;;
66327;SDS011;53133;52.862;6.602;2022-09-16T09:37:14;7.95;;;1.50;;
66327;SDS011;53133;52.862;6.602;2022-09-16T09:40:11;4.97;;;1.83;;
66327;SDS011;53133;52.862;6.602;2022-09-16T09:43:19;9.20;;;1.50;;
66327;SDS011;53133;52.862;6.602;2022-09-16T09:45:55;6.93;;;1.73;;
66327;SDS011;53133;52.862;6.602;2022-09-16T09:51:04;9.18;;;1.70;;
66327;SDS011;53133;52.862;6.602;2022-09-16T09:53:41;12.93;;;1.58;;
66327;SDS011;53133;52.862;6.602;2022-09-16T09:58:40;7.95;;;2.05;;
66327;SDS011;53133;52.862;6.602;2022-09-16T10:01:12;6.78;;;1.85;;
66327;SDS011;53133;52.862;6.602;2022-09-16T10:03:40;5.95;;;1.50;;
66327;SDS011;53133;52.862;6.602;2022-09-16T10:06:05;8.30;;;1.40;;
66327;SDS011;53133;52.862;6.602;2022-09-16T10:08:36;9.70;;;1.60;;
66327;SDS011;53133;52.862;6.602;2022-09-16T10:11:14;8.10;;;1.60;;
66327;SDS011;53133;52.862;6.602;2022-09-16T10:13:46;10.85;;;1.42;;
66327;SDS011;53133;52.862;6.602;2022-09-16T10:16:18;9.75;;;1.70;;
66327;SDS011;53133;52.862;6.602;2022-09-16T10:19:07;6.75;;;1.23;;
66327;SDS011;53133;52.862;6.602;2022-09-16T10:21:45;8.13;;;1.45;;
66327;SDS011;53133;52.862;6.602;2022-09-16T10:26:55;8.73;;;1.60;;
66327;SDS011;53133;52.862;6.602;2022-09-16T10:29:22;10.07;;;1.80;;
66327;SDS011;53133;52.862;6.602;2022-09-16T10:31:48;9.27;;;1.58;;
66327;SDS011;53133;52.862;6.602;2022-09-16T10:34:20;8.50;;;1.92;;
66327;SDS011;53133;52.862;6.602;2022-09-16T10:39:27;10.80;;;1.60;;
66327;SDS011;53133;52.862;6.602;2022-09-16T10:41:53;12.23;;;1.70;;
66327;SDS011;53133;52.862;6.602;2022-09-16T10:49:32;9.68;;;1.83;;
66327;SDS011;53133;52.862;6.602;2022-09-16T10:52:08;10.15;;;1.75;;
66327;SDS011;53133;52.862;6.602;2022-09-16T10:54:38;12.30;;;1.95;;
66327;SDS011;53133;52.862;6.602;2022-09-16T10:57:17;8.05;;;1.80;;
66327;SDS011;53133;52.862;6.602;2022-09-16T11:08:10;7.68;;;1.48;;
66327;SDS011;53133;52.862;6.602;2022-09-16T11:10:44;9.23;;;1.90;;
66327;SDS011;53133;52.862;6.602;2022-09-16T11:24:10;10.73;;;1.80;;
66327;SDS011;53133;52.862;6.602;2022-09-16T11:38:10;2.75;;;1.20;;
66327;SDS011;53133;52.862;6.602;2022-09-16T11:40:45;10.60;;;2.17;;
66327;SDS011;53133;52.862;6.602;2022-09-16T11:45:56;6.65;;;1.08;;
66327;SDS011;53133;52.862;6.602;2022-09-16T11:54:20;4.20;;;1.15;;
66327;SDS011;53133;52.862;6.602;2022-09-16T11:57:12;7.40;;;1.38;;
66327;SDS011;53133;52.862;6.602;2022-09-16T12:00:18;5.53;;;1.48;;
66327;SDS011;53133;52.862;6.602;2022-09-16T12:05:48;6.95;;;1.50;;
66327;SDS011;53133;52.862;6.602;2022-09-16T12:08:31;6.93;;;1.48;;
66327;SDS011;53133;52.862;6.602;2022-09-16T12:14:00;12.80;;;1.73;;
66327;SDS011;53133;52.862;6.602;2022-09-16T12:16:42;11.38;;;1.98;;
66327;SDS011;53133;52.862;6.602;2022-09-16T12:19:26;7.93;;;1.50;;
66327;SDS011;53133;52.862;6.602;2022-09-16T12:24:35;8.88;;;1.65;;
66327;SDS011;53133;52.862;6.602;2022-09-16T12:27:11;6.78;;;1.20;;
66327;SDS011;53133;52.862;6.602;2022-09-16T12:30:04;8.38;;;1.33;;
66327;SDS011;53133;52.862;6.602;2022-09-16T12:35:22;6.45;;;1.60;;
66327;SDS011;53133;52.862;6.602;2022-09-16T12:37:57;7.35;;;1.48;;
66327;SDS011;53133;52.862;6.602;2022-09-16T12:40:27;7.70;;;1.50;;
66327;SDS011;53133;52.862;6.602;2022-09-16T12:45:47;12.50;;;2.00;;
66327;SDS011;53133;52.862;6.602;2022-09-16T12:48:36;12.35;;;2.03;;
66327;SDS011;53133;52.862;6.602;2022-09-16T12:51:53;5.75;;;1.65;;
66327;SDS011;53133;52.862;6.602;2022-09-16T12:57:13;7.00;;;1.35;;
66327;SDS011;53133;52.862;6.602;2022-09-16T13:03:16;9.75;;;1.67;;
66327;SDS011;53133;52.862;6.602;2022-09-16T13:05:42;18.75;;;2.30;;
66327;SDS011;53133;52.862;6.602;2022-09-16T13:08:18;12.18;;;2.38;;
66327;SDS011;53133;52.862;6.602;2022-09-16T13:10:53;8.80;;;1.88;;
66327;SDS011;53133;52.862;6.602;2022-09-16T13:13:32;8.93;;;1.95;;
66327;SDS011;53133;52.862;6.602;2022-09-16T13:16:04;7.38;;;1.90;;
66327;SDS011;53133;52.862;6.602;2022-09-16T13:23:51;9.73;;;1.98;;
66327;SDS011;53133;52.862;6.602;2022-09-16T13:26:41;15.07;;;2.65;;
66327;SDS011;53133;52.862;6.602;2022-09-16T13:29:23;10.23;;;2.50;;
66327;SDS011;53133;52.862;6.602;2022-09-16T13:32:02;12.10;;;2.00;;
66327;SDS011;53133;52.862;6.602;2022-09-16T13:34:28;14.27;;;2.50;;
66327;SDS011;53133;52.862;6.602;2022-09-16T13:36:55;9.90;;;2.22;;
66327;SDS011;53133;52.862;6.602;2022-09-16T13:39:29;9.35;;;1.90;;
66327;SDS011;53133;52.862;6.602;2022-09-16T13:41:56;7.93;;;1.70;;
66327;SDS011;53133;52.862;6.602;2022-09-16T13:49:34;7.68;;;2.17;;
66327;SDS011;53133;52.862;6.602;2022-09-16T13:54:58;12.90;;;2.58;;
66327;SDS011;53133;52.862;6.602;2022-09-16T14:03:32;11.95;;;2.40;;
66327;SDS011;53133;52.862;6.602;2022-09-16T14:09:14;13.85;;;2.60;;
66327;SDS011;53133;52.862;6.602;2022-09-16T14:14:47;8.60;;;2.05;;
66327;SDS011;53133;52.862;6.602;2022-09-16T14:17:18;9.15;;;2.13;;
66327;SDS011;53133;52.862;6.602;2022-09-16T14:19:47;13.57;;;2.38;;
66327;SDS011;53133;52.862;6.602;2022-09-16T14:22:17;16.77;;;2.33;;
66327;SDS011;53133;52.862;6.602;2022-09-16T14:24:49;6.85;;;1.60;;
66327;SDS011;53133;52.862;6.602;2022-09-16T14:27:29;11.63;;;1.90;;
66327;SDS011;53133;52.862;6.602;2022-09-16T14:30:01;7.70;;;1.95;;
66327;SDS011;53133;52.862;6.602;2022-09-16T14:32:31;8.52;;;2.20;;
66327;SDS011;53133;52.862;6.602;2022-09-16T14:35:03;10.23;;;2.20;;
66327;SDS011;53133;52.862;6.602;2022-09-16T14:37:34;12.07;;;2.22;;
66327;SDS011;53133;52.862;6.602;2022-09-16T14:40:05;10.15;;;2.00;;
66327;SDS011;53133;52.862;6.602;2022-09-16T14:42:36;16.42;;;2.28;;
66327;SDS011;53133;52.862;6.602;2022-09-16T14:45:12;17.00;;;2.60;;
66327;SDS011;53133;52.862;6.602;2022-09-16T14:47:40;14.85;;;2.25;;
66327;SDS011;53133;52.862;6.602;2022-09-16T14:50:07;12.50;;;2.17;;
66327;SDS011;53133;52.862;6.602;2022-09-16T14:52:37;14.68;;;2.65;;
66327;SDS011;53133;52.862;6.602;2022-09-16T14:55:22;11.13;;;1.98;;
66327;SDS011;53133;52.862;6.602;2022-09-16T14:57:54;9.15;;;2.03;;
66327;SDS011;53133;52.862;6.602;2022-09-16T15:00:23;11.73;;;2.58;;
66327;SDS011;53133;52.862;6.602;2022-09-16T15:05:35;8.85;;;2.47;;
66327;SDS011;53133;52.862;6.602;2022-09-16T15:08:08;11.30;;;2.40;;
66327;SDS011;53133;52.862;6.602;2022-09-16T15:10:47;9.75;;;2.70;;
66327;SDS011;53133;52.862;6.602;2022-09-16T15:13:16;11.82;;;2.15;;
66327;SDS011;53133;52.862;6.602;2022-09-16T15:15:46;10.63;;;2.35;;
66327;SDS011;53133;52.862;6.602;2022-09-16T15:18:21;10.82;;;2.47;;
66327;SDS011;53133;52.862;6.602;2022-09-16T15:21:03;11.00;;;2.60;;
66327;SDS011;53133;52.862;6.602;2022-09-16T15:26:10;14.25;;;2.58;;
66327;SDS011;53133;52.862;6.602;2022-09-16T15:28:57;12.05;;;2.40;;
66327;SDS011;53133;52.862;6.602;2022-09-16T15:31:38;10.82;;;2.60;;
66327;SDS011;53133;52.862;6.602;2022-09-16T15:36:48;16.70;;;2.60;;
66327;SDS011;53133;52.862;6.602;2022-09-16T15:44:46;9.98;;;2.05;;
66327;SDS011;53133;52.862;6.602;2022-09-16T15:52:27;5.28;;;1.20;;
66327;SDS011;53133;52.862;6.602;2022-09-16T15:54:54;8.15;;;1.70;;
66327;SDS011;53133;52.862;6.602;2022-09-16T15:57:47;5.50;;;1.67;;
66327;SDS011;53133;52.862;6.602;2022-09-16T16:00:11;8.15;;;1.73;;
66327;SDS011;53133;52.862;6.602;2022-09-16T16:05:23;5.70;;;1.47;;
66327;SDS011;53133;52.862;6.602;2022-09-16T16:07:58;7.85;;;1.92;;
66327;SDS011;53133;52.862;6.602;2022-09-16T16:10:26;5.18;;;1.45;;
66327;SDS011;53133;52.862;6.602;2022-09-16T16:12:55;4.53;;;1.10;;
66327;SDS011;53133;52.862;6.602;2022-09-16T16:15:29;2.80;;;1.00;;
66327;SDS011;53133;52.862;6.602;2022-09-16T16:17:59;5.05;;;1.25;;
66327;SDS011;53133;52.862;6.602;2022-09-16T16:20:27;7.10;;;1.20;;
66327;SDS011;53133;52.862;6.602;2022-09-16T16:22:56;4.90;;;0.98;;
66327;SDS011;53133;52.862;6.602;2022-09-16T16:25:22;3.90;;;0.80;;
66327;SDS011;53133;52.862;6.602;2022-09-16T16:27:47;8.23;;;1.52;;
66327;SDS011;53133;52.862;6.602;2022-09-16T16:30:13;3.50;;;0.90;;
66327;SDS011;53133;52.862;6.602;2022-09-16T16:32:39;4.35;;;1.05;;
66327;SDS011;53133;52.862;6.602;2022-09-16T16:35:05;5.65;;;1.35;;
66327;SDS011;53133;52.862;6.602;2022-09-16T16:37:31;6.82;;;1.05;;
66327;SDS011;53133;52.862;6.602;2022-09-16T16:39:57;5.32;;;1.05;;
66327;SDS011;53133;52.862;6.602;2022-09-16T16:42:22;5.68;;;1.40;;
66327;SDS011;53133;52.862;6.602;2022-09-16T16:44:48;4.68;;;1.00;;
66327;SDS011;53133;52.862;6.602;2022-09-16T16:47:14;5.57;;;1.35;;
66327;SDS011;53133;52.862;6.602;2022-09-16T16:49:40;5.22;;;1.20;;
66327;SDS011;53133;52.862;6.602;2022-09-16T16:52:06;7.68;;;1.30;;
66327;SDS011;53133;52.862;6.602;2022-09-16T16:54:32;5.38;;;1.40;;
66327;SDS011;53133;52.862;6.602;2022-09-16T16:56:58;7.13;;;1.60;;
66327;SDS011;53133;52.862;6.602;2022-09-16T16:59:25;6.00;;;1.35;;
66327;SDS011;53133;52.862;6.602;2022-09-16T17:01:52;7.40;;;1.75;;
66327;SDS011;53133;52.862;6.602;2022-09-16T17:04:20;8.65;;;1.42;;
66327;SDS011;53133;52.862;6.602;2022-09-16T17:06:46;7.35;;;1.58;;
66327;SDS011;53133;52.862;6.602;2022-09-16T17:09:12;8.98;;;1.60;;
66327;SDS011;53133;52.862;6.602;2022-09-16T17:11:51;8.95;;;1.92;;
66327;SDS011;53133;52.862;6.602;2022-09-16T17:14:19;10.55;;;1.65;;
66327;SDS011;53133;52.862;6.602;2022-09-16T17:16:45;12.55;;;1.83;;
66327;SDS011;53133;52.862;6.602;2022-09-16T17:19:12;9.27;;;2.20;;
66327;SDS011;53133;52.862;6.602;2022-09-16T17:21:39;7.10;;;1.48;;
66327;SDS011;53133;52.862;6.602;2022-09-16T17:24:05;5.47;;;1.63;;
66327;SDS011;53133;52.862;6.602;2022-09-16T17:26:31;10.65;;;1.80;;
66327;SDS011;53133;52.862;6.602;2022-09-16T17:28:57;14.10;;;1.95;;
66327;SDS011;53133;52.862;6.602;2022-09-16T17:31:24;7.80;;;1.55;;
66327;SDS011;53133;52.862;6.602;2022-09-16T17:33:56;9.38;;;1.48;;
66327;SDS011;53133;52.862;6.602;2022-09-16T17:36:24;12.30;;;1.90;;
66327;SDS011;53133;52.862;6.602;2022-09-16T17:38:53;7.78;;;1.88;;
66327;SDS011;53133;52.862;6.602;2022-09-16T17:41:26;6.78;;;1.70;;
66327;SDS011;53133;52.862;6.602;2022-09-16T17:43:54;9.73;;;1.77;;
66327;SDS011;53133;52.862;6.602;2022-09-16T17:46:21;11.30;;;2.03;;
66327;SDS011;53133;52.862;6.602;2022-09-16T17:48:49;5.78;;;1.35;;
66327;SDS011;53133;52.862;6.602;2022-09-16T17:51:15;7.90;;;1.58;;
66327;SDS011;53133;52.862;6.602;2022-09-16T17:53:41;8.88;;;1.83;;
66327;SDS011;53133;52.862;6.602;2022-09-16T17:56:08;7.78;;;2.65;;
66327;SDS011;53133;52.862;6.602;2022-09-16T17:58:38;7.95;;;1.35;;
66327;SDS011;53133;52.862;6.602;2022-09-16T18:01:10;8.93;;;1.65;;
66327;SDS011;53133;52.862;6.602;2022-09-16T18:03:40;7.43;;;1.83;;
66327;SDS011;53133;52.862;6.602;2022-09-16T18:06:11;9.50;;;1.80;;
66327;SDS011;53133;52.862;6.602;2022-09-16T18:08:42;9.55;;;1.55;;
66327;SDS011;53133;52.862;6.602;2022-09-16T18:11:08;9.77;;;1.75;;
66327;SDS011;53133;52.862;6.602;2022-09-16T18:13:35;10.23;;;1.85;;
66327;SDS011;53133;52.862;6.602;2022-09-16T18:16:05;7.30;;;1.77;;
66327;SDS011;53133;52.862;6.602;2022-09-16T18:18:36;14.25;;;2.25;;
66327;SDS011;53133;52.862;6.602;2022-09-16T18:21:03;11.13;;;1.90;;
66327;SDS011;53133;52.862;6.602;2022-09-16T18:23:31;5.85;;;1.67;;
66327;SDS011;53133;52.862;6.602;2022-09-16T18:26:01;7.18;;;1.60;;
66327;SDS011;53133;52.862;6.602;2022-09-16T18:28:38;9.27;;;1.90;;
66327;SDS011;53133;52.862;6.602;2022-09-16T18:31:07;8.48;;;1.88;;
66327;SDS011;53133;52.862;6.602;2022-09-16T18:33:34;9.20;;;1.60;;